createdAt,value
2023-01-02T00:01:19.526Z,98833.53
2023-01-02T00:03:47.435Z,98836.50
2023-01-02T00:06:17.771Z,98828.13
2023-01-02T00:08:49.034Z,98816.16
2023-01-02T00:11:17.177Z,98808.22
2023-01-02T00:13:45.033Z,98809.31
2023-01-02T00:16:15.206Z,98814.13
2023-01-02T00:18:43.025Z,98815.09
2023-01-02T00:21:11.125Z,98810.50
2023-01-02T00:23:39.265Z,98802.59
2023-01-02T00:26:08.850Z,98808.34
2023-01-02T00:28:37.579Z,98802.66
2023-01-02T00:31:08.865Z,98793.13
2023-01-02T00:33:37.242Z,98786.00
2023-01-02T00:36:07.080Z,98790.72
2023-01-02T00:38:38.027Z,98790.72
2023-01-02T00:41:08.571Z,98787.50
2023-01-02T00:43:36.547Z,98781.56
2023-01-02T00:46:10.933Z,98785.53
2023-01-02T00:48:39.747Z,98793.34
2023-01-02T00:51:07.690Z,98792.50
2023-01-02T00:53:36.075Z,98791.09
2023-01-02T00:56:03.952Z,98797.50
2023-01-02T00:58:33.522Z,98795.47
2023-01-02T01:01:01.363Z,98803.25
2023-01-02T01:03:29.882Z,98806.50
2023-01-02T01:05:57.644Z,98811.06
2023-01-02T01:08:25.440Z,98809.66
2023-01-02T01:10:53.325Z,98820.28
2023-01-02T01:13:21.487Z,98814.47
2023-01-02T01:15:50.680Z,98824.50
2023-01-02T01:18:18.516Z,98813.75
2023-01-02T01:20:46.283Z,98819.69
2023-01-02T01:23:14.055Z,98820.63
2023-01-02T01:25:41.829Z,98816.66
2023-01-02T01:28:09.967Z,98818.94
2023-01-02T01:30:37.738Z,98814.31
2023-01-02T01:33:06.829Z,98810.66
2023-01-02T01:35:34.935Z,98815.53
2023-01-02T01:38:02.744Z,98829.97
2023-01-02T01:40:37.555Z,98825.34
2023-01-02T01:43:05.433Z,98827.47
2023-01-02T01:45:34.924Z,98826.78
2023-01-02T01:48:04.186Z,98822.53
2023-01-02T01:50:36.025Z,98824.47
2023-01-02T01:53:11.020Z,98823.25
2023-01-02T01:55:42.783Z,98833.38
2023-01-02T01:58:13.936Z,98817.97
2023-01-02T02:00:43.063Z,98829.19
2023-01-02T02:03:15.680Z,98823.88
2023-01-02T02:05:46.100Z,98817.84
2023-01-02T02:08:19.823Z,98824.25
2023-01-02T02:10:48.381Z,98826.41
2023-01-02T02:13:16.513Z,98822.53
2023-01-02T02:15:49.693Z,98814.81
2023-01-02T02:18:30.359Z,98815.78
2023-01-02T02:21:07.659Z,98818.56
2023-01-02T02:24:08.806Z,98810.97
2023-01-02T02:27:13.318Z,98799.13
2023-01-02T02:30:07.922Z,98796.97
2023-01-02T02:32:52.651Z,98779.44
2023-01-02T02:35:33.210Z,98771.03
2023-01-02T02:38:08.458Z,98768.06
2023-01-02T02:40:50.432Z,98762.75
2023-01-02T02:43:25.968Z,98763.97
2023-01-02T02:46:05.383Z,98765.72
2023-01-02T02:48:46.728Z,98765.13
2023-01-02T02:51:20.959Z,98757.38
2023-01-02T02:53:55.989Z,98760.22
2023-01-02T02:56:29.419Z,98750.31
2023-01-02T02:58:58.087Z,98765.75
2023-01-02T03:01:31.290Z,98759.06
2023-01-02T03:03:59.499Z,98754.41
2023-01-02T03:06:45.683Z,98745.88
2023-01-02T03:09:19.997Z,98745.59
2023-01-02T03:11:56.167Z,98744.25
2023-01-02T03:14:32.581Z,98750.25
2023-01-02T03:17:04.368Z,98753.63
2023-01-02T03:19:38.185Z,98751.06
2023-01-02T03:22:13.400Z,98758.94
2023-01-02T03:24:44.253Z,98751.19
2023-01-02T03:27:16.645Z,98745.88
2023-01-02T03:29:48.242Z,98755.06
2023-01-02T03:32:23.710Z,98753.38
2023-01-02T03:34:54.120Z,98753.63
2023-01-02T03:37:26.974Z,98749.41
2023-01-02T03:39:58.912Z,98757.25
2023-01-02T03:42:30.250Z,98759.78
2023-01-02T03:45:05.904Z,98757.25
2023-01-02T03:47:42.907Z,98756.81
2023-01-02T03:50:16.563Z,98752.47
2023-01-02T03:52:44.450Z,98760.22
2023-01-02T03:55:12.786Z,98754.28
2023-01-02T03:57:57.094Z,98762.69
2023-01-02T04:00:36.271Z,98763.19
2023-01-02T04:03:11.771Z,98766.53
2023-01-02T04:05:45.628Z,98757.78
2023-01-02T04:08:21.389Z,98756.69
2023-01-02T04:10:58.029Z,98762.63
2023-01-02T04:13:33.385Z,98762.75
2023-01-02T04:16:04.100Z,98754.97
2023-01-02T04:18:46.173Z,98750.78
2023-01-02T04:21:20.430Z,98744.50
2023-01-02T04:23:50.765Z,98752.00
2023-01-02T04:26:25.359Z,98746.69
2023-01-02T04:28:54.021Z,98740.66
2023-01-02T04:31:29.321Z,98740.41
2023-01-02T04:34:01.360Z,98734.00
2023-01-02T04:36:29.307Z,98730.78
2023-01-02T04:38:57.116Z,98724.47
2023-01-02T04:41:27.824Z,98722.72
2023-01-02T04:43:55.658Z,98720.94
2023-01-02T04:46:24.492Z,98716.19
2023-01-02T04:48:52.880Z,98716.84
2023-01-02T04:51:25.515Z,98723.63
2023-01-02T04:53:54.318Z,98725.03
2023-01-02T04:56:23.156Z,98727.34
2023-01-02T04:58:51.568Z,98723.19
2023-01-02T05:01:21.740Z,98726.31
2023-01-02T05:03:52.557Z,98733.28
2023-01-02T05:06:20.734Z,98736.09
2023-01-02T05:08:49.925Z,98739.44
2023-01-02T05:11:21.049Z,98743.00
2023-01-02T05:13:49.212Z,98750.53
2023-01-02T05:16:17.079Z,98740.09
2023-01-02T05:18:47.197Z,98741.13
2023-01-02T05:21:29.247Z,98740.03
2023-01-02T05:24:00.287Z,98738.38
2023-01-02T05:26:30.731Z,98743.22
2023-01-02T05:28:58.533Z,98737.34
2023-01-02T05:31:26.953Z,98738.63
2023-01-02T05:33:55.718Z,98742.69
2023-01-02T05:36:24.636Z,98739.38
2023-01-02T05:38:55.543Z,98742.44
2023-01-02T05:41:24.950Z,98741.59
2023-01-02T05:43:52.721Z,98740.63
2023-01-02T05:46:22.208Z,98738.50
2023-01-02T05:48:49.965Z,98736.09
2023-01-02T05:51:20.602Z,98741.50
2023-01-02T05:53:50.966Z,98738.50
2023-01-02T05:56:22.213Z,98741.59
2023-01-02T05:58:51.538Z,98733.63
2023-01-02T06:01:22.478Z,98738.00
2023-01-02T06:03:52.031Z,98746.13
2023-01-02T06:06:21.577Z,98754.22
2023-01-02T06:08:52.517Z,98752.66
2023-01-02T06:11:20.415Z,98755.56
2023-01-02T06:13:48.649Z,98755.88
2023-01-02T06:16:17.889Z,98764.28
2023-01-02T06:18:45.825Z,98761.47
2023-01-02T06:21:15.796Z,98762.69
2023-01-02T06:23:44.016Z,98769.59
2023-01-02T06:26:14.121Z,98759.47
2023-01-02T06:28:42.589Z,98766.38
2023-01-02T06:31:12.229Z,98775.44
2023-01-02T06:33:42.109Z,98774.38
2023-01-02T06:36:11.789Z,98767.19
2023-01-02T06:38:40.590Z,98779.34
2023-01-02T06:41:09.705Z,98777.66
2023-01-02T06:43:42.852Z,98783.66
2023-01-02T06:46:13.825Z,98787.72
2023-01-02T06:48:43.400Z,98796.69
2023-01-02T06:51:13.720Z,98795.97
2023-01-02T06:53:43.181Z,98804.19
2023-01-02T06:56:12.286Z,98801.66
2023-01-02T06:58:41.031Z,98799.34
2023-01-02T07:01:12.551Z,98799.13
2023-01-02T07:03:40.503Z,98802.50
2023-01-02T07:06:13.028Z,98809.34
2023-01-02T07:08:41.890Z,98809.59
2023-01-02T07:11:12.489Z,98814.97
2023-01-02T07:13:41.279Z,98810.66
2023-01-02T07:16:11.057Z,98822.59
2023-01-02T07:18:38.994Z,98824.22
2023-01-02T07:21:09.581Z,98833.75
2023-01-02T07:23:37.762Z,98825.59
2023-01-02T07:26:07.682Z,98831.66
2023-01-02T07:28:36.895Z,98827.75
2023-01-02T07:31:08.610Z,98835.75
2023-01-02T07:33:36.809Z,98844.00
2023-01-02T07:36:12.105Z,98847.69
2023-01-02T07:38:40.048Z,98849.53
2023-01-02T07:41:15.364Z,98850.50
2023-01-02T07:43:44.559Z,98853.66
2023-01-02T07:46:13.171Z,98855.56
2023-01-02T07:48:41.096Z,98864.75
2023-01-02T07:51:10.452Z,98859.91
2023-01-02T07:53:38.618Z,98863.78
2023-01-02T07:56:06.764Z,98870.69
2023-01-02T07:58:35.399Z,98866.66
2023-01-02T08:01:07.273Z,98869.78
2023-01-02T08:03:35.049Z,98870.03
2023-01-02T08:06:07.654Z,98873.03
2023-01-02T08:08:37.157Z,98865.56
2023-01-02T08:11:07.026Z,98868.06
2023-01-02T08:13:34.938Z,98876.19
2023-01-02T08:16:07.551Z,98872.19
2023-01-02T08:18:35.862Z,98872.78
2023-01-02T08:21:04.435Z,98875.59
2023-01-02T08:23:36.586Z,98882.06
2023-01-02T08:26:06.914Z,98878.72
2023-01-02T08:28:35.884Z,98883.66
2023-01-02T08:31:09.524Z,98888.84
2023-01-02T08:33:37.387Z,98888.22
2023-01-02T08:36:05.496Z,98882.81
2023-01-02T08:38:37.624Z,98898.50
2023-01-02T08:41:05.666Z,98890.31
2023-01-02T08:43:36.206Z,98898.75
2023-01-02T08:46:05.551Z,98893.19
2023-01-02T08:48:33.676Z,98902.81
2023-01-02T08:51:01.624Z,98897.50
2023-01-02T08:53:29.611Z,98900.00
2023-01-02T08:56:23.709Z,98904.41
2023-01-02T08:58:53.239Z,98901.13
2023-01-02T09:01:22.641Z,98898.19
2023-01-02T09:03:51.513Z,98905.97
2023-01-02T09:06:22.310Z,98901.59
2023-01-02T09:08:52.178Z,98903.94
2023-01-02T09:11:28.031Z,98916.41
2023-01-02T09:14:08.873Z,98916.13
2023-01-02T09:16:36.800Z,98913.00
2023-01-02T09:19:04.987Z,98916.69
2023-01-02T09:21:32.848Z,98923.50
2023-01-02T09:24:00.920Z,98926.78
2023-01-02T09:26:32.395Z,98927.91
2023-01-02T09:29:00.161Z,98937.81
2023-01-02T09:31:28.010Z,98923.50
2023-01-02T09:33:58.318Z,98940.44
2023-01-02T09:36:26.173Z,98942.13
2023-01-02T09:38:55.255Z,98941.81
2023-01-02T09:41:35.013Z,98946.13
2023-01-02T09:44:06.915Z,98941.97
2023-01-02T09:46:41.376Z,98946.44
2023-01-02T09:49:14.145Z,98948.13
2023-01-02T09:51:45.174Z,98947.72
2023-01-02T09:54:19.555Z,98947.44
2023-01-02T09:56:53.260Z,98949.56
2023-01-02T09:59:30.203Z,98952.88
2023-01-02T10:02:08.615Z,98958.81
2023-01-02T10:04:56.754Z,98953.50
2023-01-02T10:07:30.632Z,98956.06
2023-01-02T10:10:04.471Z,98969.78
2023-01-02T10:12:39.026Z,98960.81
2023-01-02T10:15:11.610Z,98959.84
2023-01-02T10:17:46.872Z,98968.41
2023-01-02T10:20:25.913Z,98969.25
2023-01-02T10:22:58.099Z,98982.03
2023-01-02T10:25:31.815Z,98983.84
2023-01-02T10:28:08.375Z,98989.88
2023-01-02T10:30:42.525Z,98991.13
2023-01-02T10:33:17.636Z,98984.50
2023-01-02T10:35:51.057Z,98987.69
2023-01-02T10:38:21.017Z,98979.47
2023-01-02T10:40:51.520Z,98987.78
2023-01-02T10:43:20.677Z,98981.13
2023-01-02T10:45:48.551Z,98982.75
2023-01-02T10:48:21.493Z,98979.00
2023-01-02T10:50:52.851Z,98974.78
2023-01-02T10:53:24.028Z,98969.69
2023-01-02T10:55:51.951Z,98966.59
2023-01-02T10:58:24.541Z,98958.78
2023-01-02T11:01:03.788Z,98965.16
2023-01-02T11:03:32.811Z,98967.84
2023-01-02T11:06:26.680Z,98959.72
2023-01-02T11:08:58.044Z,98963.03
2023-01-02T11:11:27.353Z,98964.94
2023-01-02T11:14:05.835Z,98967.00
2023-01-02T11:16:39.273Z,98962.97
2023-01-02T11:19:25.592Z,98963.81
2023-01-02T11:21:57.515Z,98960.97
2023-01-02T11:24:28.509Z,98962.19
2023-01-02T11:26:57.086Z,98963.19
2023-01-02T11:29:31.648Z,98961.75
2023-01-02T11:32:03.114Z,98971.06
2023-01-02T11:34:35.707Z,98961.81
2023-01-02T11:37:07.270Z,98962.34
2023-01-02T11:39:35.776Z,98964.88
2023-01-02T11:42:32.780Z,98961.34
2023-01-02T11:45:08.208Z,98964.44
2023-01-02T11:47:41.041Z,98965.22
2023-01-02T11:50:12.668Z,98961.72
2023-01-02T11:52:47.022Z,98963.59
2023-01-02T11:55:26.661Z,98956.78
2023-01-02T11:57:59.785Z,98958.72
2023-01-02T12:00:33.842Z,98960.91
2023-01-02T12:03:07.527Z,98965.94
2023-01-02T12:05:43.985Z,98971.13
2023-01-02T12:08:22.086Z,98967.63
2023-01-02T12:10:56.821Z,98958.69
2023-01-02T12:13:44.166Z,98967.38
2023-01-02T12:16:27.892Z,98976.03
2023-01-02T12:19:13.329Z,98970.38
2023-01-02T12:21:54.313Z,98977.91
2023-01-02T12:24:55.113Z,98981.28
2023-01-02T12:27:33.329Z,98962.69
2023-01-02T12:30:08.550Z,98961.91
2023-01-02T12:33:05.680Z,98958.13
2023-01-02T12:36:16.895Z,98961.66
2023-01-02T12:38:59.878Z,98963.47
2023-01-02T12:41:33.207Z,98967.09
2023-01-02T12:44:17.655Z,98969.56
2023-01-02T12:47:19.990Z,98964.00
2023-01-02T12:50:14.903Z,98972.34
2023-01-02T12:52:56.495Z,98978.97
2023-01-02T12:55:38.637Z,98969.00
2023-01-02T12:58:14.903Z,98976.75
2023-01-02T13:01:01.579Z,98979.53
2023-01-02T13:04:05.940Z,98975.97
2023-01-02T13:06:47.110Z,98967.00
2023-01-02T13:09:23.393Z,98974.34
2023-01-02T13:12:02.306Z,98974.88
2023-01-02T13:14:37.018Z,98986.78
2023-01-02T13:17:37.234Z,98985.69
2023-01-02T13:20:11.842Z,98989.34
2023-01-02T13:22:48.850Z,98995.22
2023-01-02T13:25:21.474Z,98993.53
2023-01-02T13:27:50.575Z,98999.06
2023-01-02T13:30:45.375Z,98992.69
2023-01-02T13:33:30.349Z,99000.34
2023-01-02T13:36:01.704Z,99005.97
2023-01-02T13:38:37.117Z,99007.47
2023-01-02T13:41:04.897Z,99010.59
2023-01-02T13:43:35.488Z,99004.09
2023-01-02T13:46:05.260Z,99007.28
2023-01-02T13:48:38.678Z,99004.94
2023-01-02T13:51:14.090Z,99008.94
2023-01-02T13:53:45.019Z,99014.44
2023-01-02T13:56:15.055Z,99017.13
2023-01-02T13:58:51.991Z,99020.13
2023-01-02T14:02:04.745Z,99031.16
2023-01-02T14:04:39.039Z,99032.00
2023-01-02T14:07:45.918Z,99034.09
2023-01-02T14:10:39.596Z,99038.75
2023-01-02T14:13:26.118Z,99035.41
2023-01-02T14:16:22.077Z,99045.44
2023-01-02T14:19:15.428Z,99044.53
2023-01-02T14:21:47.349Z,99046.50
2023-01-02T14:24:29.928Z,99068.81
2023-01-02T14:27:02.209Z,99067.53
2023-01-02T14:29:31.330Z,99067.53
2023-01-02T14:32:04.491Z,99085.03
2023-01-02T14:34:34.534Z,99075.66
2023-01-02T14:37:03.745Z,99083.00
2023-01-02T14:39:36.850Z,99092.38
2023-01-02T14:42:42.043Z,99095.88
2023-01-02T14:45:16.394Z,99098.97
2023-01-02T14:47:50.268Z,99097.56
2023-01-02T14:50:23.457Z,99103.06
2023-01-02T14:53:00.033Z,99110.38
2023-01-02T14:55:32.203Z,99104.31
2023-01-02T14:58:04.206Z,99112.88
2023-01-02T15:00:37.398Z,99102.38
2023-01-02T15:03:18.996Z,99128.41
2023-01-02T15:05:51.280Z,99129.25
2023-01-02T15:08:32.486Z,99135.41
2023-01-02T15:11:23.250Z,99141.25
2023-01-02T15:14:03.708Z,99143.78
2023-01-02T15:16:42.558Z,99141.72
2023-01-02T15:19:19.204Z,99147.16
2023-01-02T15:21:47.965Z,99150.53
2023-01-02T15:24:24.070Z,99157.59
2023-01-02T15:26:52.624Z,99160.94
2023-01-02T15:29:29.369Z,99174.28
2023-01-02T15:31:59.065Z,99181.56
2023-01-02T15:34:31.386Z,99180.47
2023-01-02T15:37:02.911Z,99185.94
2023-01-02T15:39:37.942Z,99176.69
2023-01-02T15:42:28.110Z,99176.56
2023-01-02T15:45:10.203Z,99176.06
2023-01-02T15:47:39.445Z,99185.47
2023-01-02T15:50:13.461Z,99186.22
2023-01-02T15:52:41.713Z,99185.06
2023-01-02T15:55:15.029Z,99184.41
2023-01-02T15:57:48.215Z,99183.97
2023-01-02T16:00:37.170Z,99190.25
2023-01-02T16:03:05.794Z,99187.09
2023-01-02T16:05:46.095Z,99194.38
2023-01-02T16:08:22.455Z,99204.69
2023-01-02T16:11:01.034Z,99195.50
2023-01-02T16:13:49.926Z,99200.06
2023-01-02T16:16:20.871Z,99218.31
2023-01-02T16:18:52.630Z,99201.69
2023-01-02T16:21:22.130Z,99222.00
2023-01-02T16:23:53.683Z,99221.63
2023-01-02T16:26:31.789Z,99221.63
2023-01-02T16:28:59.979Z,99233.50
2023-01-02T16:31:29.392Z,99232.78
2023-01-02T16:34:15.812Z,99243.22
2023-01-02T16:36:43.729Z,99236.94
2023-01-02T16:39:49.428Z,99253.97
2023-01-02T16:42:37.591Z,99255.91
2023-01-02T16:45:07.241Z,99240.19
2023-01-02T16:47:41.497Z,99248.38
2023-01-02T16:50:18.160Z,99255.44
2023-01-02T16:52:46.543Z,99259.34
2023-01-02T16:55:17.387Z,99258.59
2023-01-02T16:57:45.193Z,99263.00
2023-01-02T17:00:14.256Z,99296.09
2023-01-02T17:02:43.723Z,99295.59
2023-01-02T17:05:19.643Z,99288.34
2023-01-02T17:07:47.592Z,99286.16
2023-01-02T17:10:16.453Z,99294.38
2023-01-02T17:12:45.528Z,99294.66
2023-01-02T17:15:14.311Z,99302.03
2023-01-02T17:17:43.803Z,99305.78
2023-01-02T17:20:13.753Z,99300.06
2023-01-02T17:22:42.022Z,99306.25
2023-01-02T17:25:14.299Z,99323.41
2023-01-02T17:27:42.987Z,99321.72
2023-01-02T17:30:12.862Z,99322.31
2023-01-02T17:32:40.834Z,99335.25
2023-01-02T17:35:11.043Z,99334.78
2023-01-02T17:37:39.504Z,99338.78
2023-01-02T17:40:09.921Z,99353.25
2023-01-02T17:42:37.912Z,99353.88
2023-01-02T17:45:08.727Z,99362.09
2023-01-02T17:48:00.652Z,99368.38
2023-01-02T17:50:26.045Z,99370.78
2023-01-02T17:52:53.956Z,99371.50
2023-01-02T17:55:21.951Z,99378.69
2023-01-02T17:57:50.163Z,99376.34
2023-01-02T18:00:23.212Z,99378.97
2023-01-02T18:02:52.853Z,99387.81
2023-01-02T18:05:22.151Z,99398.69
2023-01-02T18:07:51.333Z,99400.50
2023-01-02T18:10:20.786Z,99401.78
2023-01-02T18:12:50.220Z,99398.09
2023-01-02T18:15:20.780Z,99407.66
2023-01-02T18:17:49.217Z,99412.97
2023-01-02T18:20:18.998Z,99417.34
2023-01-02T18:22:50.162Z,99432.44
2023-01-02T18:25:24.429Z,99436.03
2023-01-02T18:27:52.693Z,99438.97
2023-01-02T18:30:22.978Z,99440.09
2023-01-02T18:32:54.112Z,99443.78
2023-01-02T18:38:19.264Z,99452.44
2023-01-02T18:40:48.496Z,99463.63
2023-01-02T18:43:23.295Z,99467.06
2023-01-02T18:45:54.552Z,99479.91
2023-01-02T18:48:23.796Z,99477.25
2023-01-02T18:50:58.272Z,99476.78
2023-01-02T18:53:31.422Z,99490.44
2023-01-02T18:56:03.932Z,99475.72
2023-01-02T18:58:40.806Z,99491.94
2023-01-02T19:01:27.586Z,99491.16
2023-01-02T19:04:02.908Z,99496.28
2023-01-02T19:06:31.440Z,99497.88
2023-01-02T19:09:07.102Z,99497.88
2023-01-02T19:11:53.816Z,99501.22
2023-01-02T19:14:25.713Z,99500.81
2023-01-02T19:17:02.877Z,99506.66
2023-01-02T19:19:34.390Z,99514.06
2023-01-02T19:22:11.778Z,99507.53
2023-01-02T19:24:39.737Z,99517.06
2023-01-02T19:27:24.111Z,99514.22
2023-01-02T19:29:52.680Z,99521.47
2023-01-02T19:32:27.701Z,99523.94
2023-01-02T19:34:56.873Z,99526.88
2023-01-02T19:37:40.862Z,99541.25
2023-01-02T19:40:19.435Z,99538.00
2023-01-02T19:42:49.959Z,99550.97
2023-01-02T19:45:20.336Z,99557.53
2023-01-02T19:47:49.315Z,99561.56
2023-01-02T19:50:19.247Z,99564.78
2023-01-02T19:52:47.488Z,99576.47
2023-01-02T19:55:18.874Z,99583.16
2023-01-02T19:57:47.390Z,99581.09
2023-01-02T20:00:19.356Z,99581.81
2023-01-02T20:02:49.068Z,99584.97
2023-01-02T20:05:21.953Z,99579.88
2023-01-02T20:07:50.947Z,99581.03
2023-01-02T20:10:19.140Z,99583.06
2023-01-02T20:12:49.531Z,99565.56
2023-01-02T20:15:20.893Z,99574.38
2023-01-02T20:17:48.834Z,99570.53
2023-01-02T20:20:19.270Z,99576.88
2023-01-02T20:22:49.365Z,99581.13
2023-01-02T20:25:19.783Z,99593.75
2023-01-02T20:27:48.457Z,99597.97
2023-01-02T20:30:23.934Z,99608.50
2023-01-02T20:32:52.396Z,99609.63
2023-01-02T20:35:20.207Z,99612.13
2023-01-02T20:37:48.651Z,99608.31
2023-01-02T20:40:18.980Z,99610.78
2023-01-02T20:42:46.945Z,99608.72
2023-01-02T20:45:14.872Z,99615.78
2023-01-02T20:47:44.035Z,99624.00
2023-01-02T20:50:11.992Z,99618.69
2023-01-02T20:52:39.923Z,99620.84
2023-01-02T20:55:08.532Z,99631.25
2023-01-02T20:57:36.659Z,99633.50
2023-01-02T21:00:09.390Z,99636.53
2023-01-02T21:02:37.435Z,99653.16
2023-01-02T21:05:07.115Z,99657.69
2023-01-02T21:07:34.862Z,99633.34
2023-01-02T21:10:02.729Z,99650.41
2023-01-02T21:12:59.503Z,99653.16
2023-01-02T21:15:45.091Z,99662.66
2023-01-02T21:18:16.799Z,99672.31
2023-01-02T21:20:47.193Z,99670.03
2023-01-02T21:23:15.759Z,99666.22
2023-01-02T21:25:43.919Z,99668.75
2023-01-02T21:28:12.718Z,99681.19
2023-01-02T21:30:43.417Z,99677.00
2023-01-02T21:33:11.645Z,99672.81
2023-01-02T21:35:40.121Z,99688.56
2023-01-02T21:38:09.386Z,99691.22
2023-01-02T21:40:37.421Z,99688.00
2023-01-02T21:43:05.339Z,99697.63
2023-01-02T21:45:33.296Z,99702.53
2023-01-02T21:48:01.129Z,99701.22
2023-01-02T21:50:29.212Z,99716.50
2023-01-02T21:52:57.136Z,99715.59
2023-01-02T21:55:26.545Z,99703.66
2023-01-02T21:58:12.869Z,99705.50
2023-01-02T22:00:41.838Z,99714.19
2023-01-02T22:03:09.912Z,99715.47
2023-01-02T22:05:37.832Z,99721.63
2023-01-02T22:08:06.272Z,99717.88
2023-01-02T22:10:35.462Z,99718.72
2023-01-02T22:13:03.288Z,99713.03
2023-01-02T22:15:31.087Z,99722.59
2023-01-02T22:17:58.892Z,99724.59
2023-01-02T22:20:26.671Z,99721.63
2023-01-02T22:22:54.426Z,99727.25
2023-01-02T22:25:23.303Z,99738.53
2023-01-02T22:27:52.480Z,99737.16
2023-01-02T22:30:27.268Z,99744.53
2023-01-02T22:32:59.686Z,99742.75
2023-01-02T22:35:28.360Z,99748.03
2023-01-02T22:37:57.317Z,99754.50
2023-01-02T22:40:25.259Z,99745.03
2023-01-02T22:43:00.972Z,99751.28
2023-01-02T22:45:33.935Z,99745.28
2023-01-02T22:48:04.568Z,99755.38
2023-01-02T22:50:42.896Z,99759.84
2023-01-02T22:53:19.530Z,99757.16
2023-01-02T22:55:47.844Z,99761.50
2023-01-02T22:58:17.467Z,99761.16
2023-01-02T23:00:47.648Z,99767.94
2023-01-02T23:03:17.568Z,99756.03
2023-01-02T23:05:45.522Z,99756.19
2023-01-02T23:08:14.349Z,99744.72
2023-01-02T23:10:42.304Z,99738.28
2023-01-02T23:13:10.152Z,99733.84
2023-01-02T23:16:00.802Z,99735.78
2023-01-02T23:18:50.266Z,99759.41
2023-01-02T23:21:22.748Z,99769.91
2023-01-02T23:23:51.601Z,99778.09
2023-01-02T23:26:20.213Z,99777.59
2023-01-02T23:31:41.895Z,99773.84
2023-01-02T23:34:11.075Z,99777.16
2023-01-02T23:41:03.343Z,99783.16
2023-01-02T23:43:31.237Z,99789.72
2023-01-02T23:45:59.177Z,99785.16
2023-01-02T23:48:30.744Z,99785.88
2023-01-02T23:50:58.893Z,99786.66
2023-01-02T23:53:27.370Z,99788.78
2023-01-02T23:55:55.571Z,99786.72
2023-01-02T23:58:24.265Z,99779.19
